메인 페이지
METAR-TAF:

METAR-TAF

공항 :

Ayacucho, 페루

위도: 13-08S, 경도: 074-13W, 고도: 2740m

현재 날씨관측

예보는 6 시간 27분 전, 23:00시(UTC)에 발표되었습니다.
남남동5kt풍과 남남서풍을 오가는
온도 23°C
습도 33%
기압 1025 hPa
시정 10km 이상
고도 5000ft 상공 구름 조금

METAR: SPHO 172300Z 15005KT 100V200 9999 FEW050 23/06 Q1025 RMK BIRD HAZARD RWY 02/20 PP000

시각: 00:27 (05:27 UTC)

예보

예보는 12 시간 27분 전, 17:00시(UTC)에 발표되었습니다.
예보 대상 시간: 17일 18시부터 18일 18시까지 (UTC)
여러 방향의 바람 5kt
시정 10km 이상
고도 4000ft 상공 구름 조금
일시적
17일 19시부터 17일 21시까지 (UTC)
고도 4000ft 상공 구름 조금, 타워링 적운.

TAF: SPHO 171700Z 1718/1818 VRB05KT 9999 FEW040 TX23/1719Z TN10/1811Z TEMPO 1719/1721 FEW040TCU

4,000개 이상의 공항 관측 자료 및 예보 (METAR 및 TAF 보고).

지도상에서 검색 가능한 기상관측소가 노란 점과 빨간 점으로 표시되어 있습니다.

기상관측소 명을 보려면 표시 위로 마우스를 이동하세요.

날씨 관측과 예보를 보려면 클릭하세요.

지도 변경 : 확대하려면 엑스 표시가 있는 녹색 버튼, 축소하려면 빼기 표시가 있는 녹색 버튼, 다음 페이지의 지도를 보려면 녹색 화살표를 클릭하세요.


METAR-TAF: